Skip Navigation Links Skip Navigation Links

Current Weather

Resolute, N.T.

For information only: do not use for flight planning or navigation.
Latest weather
Observation time Sunday, January 21, 2018 2:00 PM CST
Local time Sunday, January 21, 2018 2:39 PM CST
Flight conditions Visual Meteorological Conditions
Winds
Wind direction North (350°)
Wind speed 10 mph
Visibility 15 mi.
Present weather ice crystals
Sky condition
Ceiling unlimited
Cloud layer scattered clouds 22,000 ft.
Temperature -29°F
Dewpoint -36°F
Altimeter 30.20 in.Hg
Derived measurements
Relative humidity 67%
Wind chill -53°F
Density altitude -6599 ft.
Sea-level pressure 30.24 in.Hg
METAR CYRB 212000Z 35009KT 15SM IC SCT220 M34/M38 A3020 RMK CI3 SLP241

Settings

Location code

InnerDrive.Weather 4.0.6144.1 Release CLR 4.0.30319.36366
Copyright ©2015 Inner Drive Technology. All rights reserved. Portions Copyright ©1986-2015 David Braverman.

Find weather

Site navigation


Skip Navigation Links

Place info

Page info

PayPal - The safer, easier way to pay online!

Return home.

Copyright ©2018 Inner Drive Technology. Purveyors of fine, hand-crafted computer software. Page printed 2018-01-21T20:39:34 UTC.